Time;durP1;ratioP1;P1;durP2;ratioP2;P2;SDS_P1;SDS_P2;PMS_P1;PMS_P2;Temp;Humidity;BMP_temperature;BMP_pressure;BME280_temperature;BME280_humidity;BME280_pressure;Samples;Min_cycle;Max_cycle;Signal;HPM_P1;HPM_P2
2023/11/22 00:00:09;;;;;;;12.17;8.70;;;8.00;99.90;;;;;;4911194;29;20438;-71
2023/11/22 00:02:35;;;;;;;13.13;9.30;;;8.00;99.90;;;;;;4905020;29;20382;-71
2023/11/22 00:05:00;;;;;;;11.87;9.93;;;8.00;99.90;;;;;;4909215;29;20462;-71
2023/11/22 00:07:29;;;;;;;12.33;10.83;;;8.00;99.90;;;;;;4909216;29;20198;-71
2023/11/22 00:09:55;;;;;;;12.17;10.30;;;8.00;99.90;;;;;;4908952;29;20249;-71
2023/11/22 00:12:22;;;;;;;11.67;9.90;;;8.10;99.90;;;;;;4909141;29;20438;-71
2023/11/22 00:14:48;;;;;;;11.80;8.77;;;8.10;99.90;;;;;;4909399;29;20489;-71
2023/11/22 00:17:14;;;;;;;8.93;7.10;;;8.10;99.90;;;;;;4910108;29;20474;-71
2023/11/22 00:19:40;;;;;;;9.20;5.97;;;8.00;99.90;;;;;;4911059;29;20462;-71
2023/11/22 00:22:12;;;;;;;4.93;4.20;;;7.80;99.90;;;;;;4909433;29;20217;-71
2023/11/22 00:24:39;;;;;;;4.80;4.07;;;7.60;99.90;;;;;;4908822;29;21506;-71
2023/11/22 00:27:04;;;;;;;4.73;4.23;;;7.50;99.90;;;;;;4909210;29;20486;-71
2023/11/22 00:29:30;;;;;;;6.03;3.93;;;7.30;99.90;;;;;;4909290;29;20442;-71
2023/11/22 00:31:55;;;;;;;6.00;3.90;;;7.20;99.90;;;;;;4910003;29;20191;-71
2023/11/22 00:34:23;;;;;;;5.80;4.30;;;7.10;99.90;;;;;;4908930;29;20198;-71
2023/11/22 00:36:48;;;;;;;4.07;3.77;;;6.90;99.90;;;;;;4908365;29;20241;-71
2023/11/22 00:39:14;;;;;;;4.47;4.07;;;6.90;99.90;;;;;;4908747;29;20469;-71
2023/11/22 00:41:40;;;;;;;4.50;4.10;;;6.80;99.90;;;;;;4908955;29;20194;-71
2023/11/22 00:44:06;;;;;;;4.20;3.90;;;6.80;99.90;;;;;;4908738;29;20682;-71
2023/11/22 00:46:32;;;;;;;5.90;4.73;;;6.70;99.90;;;;;;4909850;29;20285;-71
2023/11/22 00:48:57;;;;;;;6.27;4.50;;;6.70;99.90;;;;;;4908981;29;20183;-71
2023/11/22 00:51:23;;;;;;;5.97;5.23;;;6.60;99.90;;;;;;4914909;29;20434;-71
2023/11/22 00:53:49;;;;;;;5.90;5.30;;;6.60;99.90;;;;;;4916051;29;20190;-71
2023/11/22 00:56:15;;;;;;;7.20;6.50;;;6.50;99.90;;;;;;4920615;29;20281;-71
2023/11/22 00:58:41;;;;;;;8.50;6.07;;;6.50;99.90;;;;;;4907716;29;20442;-71
2023/11/22 01:01:07;;;;;;;6.97;6.13;;;6.40;99.90;;;;;;4909463;29;20589;-71
2023/11/22 01:03:33;;;;;;;7.43;6.10;;;6.40;99.90;;;;;;4907430;29;20210;-71
2023/11/22 01:05:58;;;;;;;8.23;6.50;;;6.40;99.90;;;;;;4906165;29;20453;-71
2023/11/22 01:08:24;;;;;;;8.83;7.83;;;6.30;99.90;;;;;;4907427;29;20187;-71
2023/11/22 01:10:49;;;;;;;9.83;7.10;;;6.20;99.90;;;;;;4910291;29;20178;-71
2023/11/22 01:13:15;;;;;;;7.90;7.10;;;6.20;99.90;;;;;;4910147;29;20194;-71
2023/11/22 01:15:41;;;;;;;8.60;7.30;;;6.10;99.90;;;;;;4909588;29;20238;-71
2023/11/22 01:18:07;;;;;;;7.70;6.90;;;6.10;99.90;;;;;;4907758;29;20202;-71
2023/11/22 01:20:33;;;;;;;7.27;6.57;;;6.20;99.90;;;;;;4910783;29;20454;-71
2023/11/22 01:22:58;;;;;;;7.53;6.60;;;6.20;99.90;;;;;;4908039;29;20208;-71
2023/11/22 01:25:24;;;;;;;8.27;6.67;;;6.10;99.90;;;;;;4906244;29;20210;-71
2023/11/22 01:27:49;;;;;;;7.40;6.70;;;6.10;99.90;;;;;;4907075;29;20246;-71
2023/11/22 01:30:15;;;;;;;8.63;6.60;;;6.00;99.90;;;;;;4908836;29;20196;-71
2023/11/22 01:32:41;;;;;;;6.77;5.93;;;6.00;99.90;;;;;;4909223;29;20190;-71
2023/11/22 01:35:06;;;;;;;7.60;6.40;;;5.90;99.90;;;;;;4906793;29;20190;-71
2023/11/22 01:37:32;;;;;;;7.30;6.10;;;5.90;99.90;;;;;;4940301;23;20233;-69
2023/11/22 01:39:58;;;;;;;7.43;6.17;;;5.90;99.90;;;;;;4927436;29;20740;-69
2023/11/22 01:42:25;;;;;;;6.57;5.87;;;5.90;99.90;;;;;;4927748;29;20269;-69
2023/11/22 01:44:50;;;;;;;7.97;6.27;;;5.80;99.90;;;;;;4927134;29;20209;-69
2023/11/22 01:47:17;;;;;;;6.10;5.50;;;5.80;99.90;;;;;;4928275;29;20985;-69
2023/11/22 01:49:43;;;;;;;8.60;5.77;;;5.80;99.90;;;;;;4927355;29;20444;-68
2023/11/22 01:52:08;;;;;;;6.03;5.40;;;5.80;99.90;;;;;;4927365;29;20545;-68
2023/11/22 01:54:34;;;;;;;6.60;5.97;;;5.70;99.90;;;;;;4927443;29;20520;-70
2023/11/22 01:57:01;;;;;;;5.90;5.30;;;5.70;99.90;;;;;;4923129;29;20742;-70
2023/11/22 01:59:29;;;;;;;6.30;5.43;;;5.70;99.90;;;;;;4925557;29;20293;-70
2023/11/22 02:01:55;;;;;;;7.83;6.57;;;5.60;99.90;;;;;;4928542;29;20476;-70
2023/11/22 02:04:20;;;;;;;6.73;5.90;;;5.60;99.90;;;;;;4939712;28;20473;-70
2023/11/22 02:06:46;;;;;;;6.10;5.50;;;5.50;99.90;;;;;;4927721;29;20476;-70
2023/11/22 02:09:15;;;;;;;7.07;6.10;;;5.50;99.90;;;;;;4924820;29;20186;-70
2023/11/22 02:11:42;;;;;;;7.07;5.23;;;5.50;99.90;;;;;;4925830;29;20433;-70
2023/11/22 02:14:08;;;;;;;7.03;6.43;;;5.50;99.90;;;;;;4925839;29;20444;-70
2023/11/22 02:16:34;;;;;;;8.10;6.43;;;5.40;99.90;;;;;;4926136;29;20453;-70
2023/11/22 02:19:00;;;;;;;9.23;6.20;;;5.40;99.90;;;;;;4924315;29;20477;-70
2023/11/22 02:21:26;;;;;;;6.30;5.67;;;5.40;99.90;;;;;;4926543;29;20433;-71
2023/11/22 02:23:51;;;;;;;7.43;6.70;;;5.30;99.90;;;;;;4925954;29;20685;-70
2023/11/22 02:26:20;;;;;;;6.50;5.33;;;5.30;99.90;;;;;;4923572;29;20297;-71
2023/11/22 02:28:45;;;;;;;5.33;4.80;;;5.30;99.90;;;;;;4927008;29;20189;-70
2023/11/22 02:31:11;;;;;;;6.30;4.50;;;5.20;99.90;;;;;;4927542;29;20437;-70
2023/11/22 02:33:36;;;;;;;4.97;4.27;;;5.10;99.90;;;;;;4927329;29;20189;-70
2023/11/22 02:36:02;;;;;;;5.67;5.07;;;5.10;99.90;;;;;;4926125;29;20185;-71
2023/11/22 02:38:28;;;;;;;4.80;4.30;;;5.20;99.90;;;;;;4925708;29;20217;-70
2023/11/22 02:40:54;;;;;;;5.87;5.27;;;5.20;99.90;;;;;;4925316;29;20178;-70
2023/11/22 02:43:20;;;;;;;5.80;5.23;;;5.10;99.90;;;;;;4926510;29;20472;-70
2023/11/22 02:45:45;;;;;;;6.50;5.80;;;5.00;99.90;;;;;;4926784;29;20212;-70
2023/11/22 02:48:11;;;;;;;8.70;5.60;;;5.00;99.90;;;;;;4929633;29;20485;-70
2023/11/22 02:50:37;;;;;;;8.50;5.20;;;5.00;99.90;;;;;;4931286;29;20264;-71
2023/11/22 02:53:03;;;;;;;6.50;5.33;;;5.00;99.90;;;;;;4933375;29;20181;-70
2023/11/22 02:55:29;;;;;;;6.23;5.63;;;4.90;99.90;;;;;;4930944;29;20214;-70
2023/11/22 02:57:55;;;;;;;6.40;5.33;;;4.80;99.90;;;;;;4927711;29;20493;-70
2023/11/22 03:00:21;;;;;;;7.30;5.80;;;4.90;99.90;;;;;;4930114;29;20539;-71
2023/11/22 03:02:47;;;;;;;8.17;7.33;;;4.80;99.90;;;;;;4932289;29;20185;-70
2023/11/22 03:05:14;;;;;;;6.43;5.83;;;4.80;99.90;;;;;;4927208;29;20215;-70
2023/11/22 03:07:40;;;;;;;5.30;4.80;;;4.70;99.90;;;;;;4927363;29;20545;-70
2023/11/22 03:10:08;;;;;;;7.70;6.23;;;4.60;99.90;;;;;;4924564;29;20791;-71
2023/11/22 03:12:34;;;;;;;5.57;5.03;;;4.60;99.90;;;;;;4929182;29;20438;-70
2023/11/22 03:15:01;;;;;;;6.67;5.27;;;4.60;99.90;;;;;;4931339;29;20477;-71
2023/11/22 03:17:28;;;;;;;6.53;5.20;;;4.70;99.90;;;;;;4931039;29;20960;-71
2023/11/22 03:19:56;;;;;;;6.63;5.70;;;4.60;99.90;;;;;;4932381;29;20504;-71
2023/11/22 03:22:25;;;;;;;6.53;5.60;;;4.60;99.90;;;;;;4922804;29;21002;-70
2023/11/22 03:24:52;;;;;;;7.97;6.03;;;4.50;99.90;;;;;;4930904;29;20995;-70
2023/11/22 03:27:18;;;;;;;7.17;4.87;;;4.50;99.90;;;;;;4936610;29;20463;-70
2023/11/22 03:29:44;;;;;;;6.90;6.27;;;4.50;99.90;;;;;;4935772;29;20433;-71
2023/11/22 03:32:11;;;;;;;6.40;5.80;;;4.40;99.90;;;;;;4933490;29;20185;-70
2023/11/22 03:34:37;;;;;;;9.87;6.40;;;4.40;99.90;;;;;;4937941;29;21196;-70
2023/11/22 03:37:02;;;;;;;5.50;5.00;;;4.40;99.90;;;;;;4933745;29;20480;-71
2023/11/22 03:39:28;;;;;;;7.10;5.73;;;4.40;99.90;;;;;;4933921;29;20298;-71
2023/11/22 03:41:53;;;;;;;9.10;6.00;;;4.30;99.90;;;;;;4938217;28;20190;-70
2023/11/22 03:44:19;;;;;;;6.73;5.00;;;4.40;99.90;;;;;;4936111;29;20260;-70
2023/11/22 03:46:44;;;;;;;6.77;6.07;;;4.30;99.90;;;;;;4934654;29;20224;-70
2023/11/22 03:49:10;;;;;;;8.10;5.77;;;4.40;99.90;;;;;;4937078;29;20176;-70
2023/11/22 03:51:38;;;;;;;6.63;5.93;;;4.50;99.90;;;;;;4929662;29;20218;-70
2023/11/22 03:54:04;;;;;;;5.87;5.20;;;4.50;99.90;;;;;;4933417;29;20196;-68
2023/11/22 03:56:30;;;;;;;8.07;6.27;;;4.40;99.90;;;;;;4934701;29;20461;-68
2023/11/22 03:58:56;;;;;;;6.53;5.93;;;4.50;99.90;;;;;;4935078;29;20185;-68
2023/11/22 04:01:22;;;;;;;6.43;5.83;;;4.50;99.90;;;;;;4932021;29;20441;-68
2023/11/22 04:03:48;;;;;;;6.47;5.87;;;4.50;99.90;;;;;;4930201;29;20560;-68
2023/11/22 04:06:18;;;;;;;7.90;6.13;;;4.60;99.90;;;;;;4933513;29;21031;-68
2023/11/22 04:08:45;;;;;;;6.57;5.80;;;4.60;99.90;;;;;;4936839;29;20528;-69
2023/11/22 04:11:11;;;;;;;6.03;5.43;;;4.60;99.90;;;;;;4934833;29;20438;-68
2023/11/22 04:13:37;;;;;;;7.13;5.53;;;4.60;99.90;;;;;;4935567;29;20448;-69
2023/11/22 04:16:04;;;;;;;6.70;5.63;;;4.60;99.90;;;;;;4931995;29;20809;-69
2023/11/22 04:18:30;;;;;;;7.90;6.70;;;4.50;99.90;;;;;;4932310;29;20488;-69
2023/11/22 04:20:58;;;;;;;6.47;5.80;;;4.50;99.90;;;;;;4930948;29;20488;-69
2023/11/22 04:23:23;;;;;;;8.80;6.57;;;4.50;99.90;;;;;;4937933;29;20465;-69
2023/11/22 04:25:49;;;;;;;7.67;6.60;;;4.50;99.90;;;;;;4934038;29;20448;-69
2023/11/22 04:28:15;;;;;;;8.67;6.60;;;4.50;99.90;;;;;;4935561;29;20484;-69
2023/11/22 04:30:41;;;;;;;7.53;6.73;;;4.60;99.90;;;;;;4934141;29;20182;-69
2023/11/22 04:33:06;;;;;;;7.40;6.57;;;4.60;99.90;;;;;;4934852;29;20465;-69
2023/11/22 04:35:36;;;;;;;8.50;7.60;;;4.60;99.90;;;;;;4931659;29;20445;-69
2023/11/22 04:38:02;;;;;;;8.50;7.00;;;4.60;99.90;;;;;;4929121;29;20280;-69
2023/11/22 04:40:27;;;;;;;8.70;7.80;;;4.60;99.90;;;;;;4927703;29;20452;-69
2023/11/22 04:42:53;;;;;;;7.00;6.30;;;4.60;99.90;;;;;;4928527;29;20178;-69
2023/11/22 04:45:18;;;;;;;10.00;8.23;;;4.70;99.90;;;;;;4935501;29;20374;-69
2023/11/22 04:47:44;;;;;;;8.10;6.40;;;4.70;99.90;;;;;;4933137;29;20210;-69
2023/11/22 04:50:10;;;;;;;6.70;6.00;;;4.70;99.90;;;;;;4934501;29;20611;-69
2023/11/22 04:52:36;;;;;;;8.37;7.40;;;4.70;99.90;;;;;;4932514;29;20186;-69
2023/11/22 04:55:01;;;;;;;9.80;8.80;;;4.70;99.90;;;;;;4934661;29;20532;-69
2023/11/22 04:57:27;;;;;;;10.67;7.70;;;4.70;99.90;;;;;;4931445;29;20197;-69
2023/11/22 04:59:53;;;;;;;7.50;6.70;;;4.70;99.90;;;;;;4934812;29;20190;-69
2023/11/22 05:02:18;;;;;;;6.43;5.83;;;4.70;99.90;;;;;;4927104;29;20174;-69
2023/11/22 05:04:48;;;;;;;6.73;6.03;;;4.80;99.90;;;;;;4934478;29;20844;-69
2023/11/22 05:07:14;;;;;;;7.63;6.23;;;4.70;99.90;;;;;;4945463;28;20198;-69
2023/11/22 05:09:40;;;;;;;6.27;5.63;;;4.70;99.90;;;;;;4932581;29;20445;-69
2023/11/22 05:12:06;;;;;;;6.93;6.20;;;4.60;99.90;;;;;;4933453;29;21044;-69
2023/11/22 05:14:31;;;;;;;7.20;6.60;;;4.60;99.90;;;;;;4929334;29;20182;-69
2023/11/22 05:16:57;;;;;;;7.47;6.13;;;4.50;99.90;;;;;;4932106;29;20484;-69
2023/11/22 05:19:22;;;;;;;7.60;6.00;;;4.50;99.90;;;;;;4934222;29;20188;-69
2023/11/22 05:21:48;;;;;;;8.80;6.23;;;4.50;99.90;;;;;;4932207;29;20200;-69
2023/11/22 05:24:15;;;;;;;7.37;6.10;;;4.60;99.90;;;;;;4926839;29;20750;-69
2023/11/22 05:26:40;;;;;;;6.97;6.07;;;4.50;99.90;;;;;;4934560;29;20585;-69
2023/11/22 05:29:06;;;;;;;6.27;5.67;;;4.50;99.90;;;;;;4930208;29;20441;-69
2023/11/22 05:31:32;;;;;;;6.43;5.83;;;4.50;99.90;;;;;;4934464;29;20190;-69
2023/11/22 05:33:57;;;;;;;7.47;6.10;;;4.40;99.90;;;;;;4934655;29;20272;-69
2023/11/22 05:36:23;;;;;;;7.63;6.10;;;4.40;99.90;;;;;;4925622;29;20445;-69
2023/11/22 05:38:49;;;;;;;6.53;5.23;;;4.40;99.90;;;;;;4933847;29;20190;-69
2023/11/22 05:41:15;;;;;;;7.37;6.33;;;4.30;99.90;;;;;;4939368;29;20649;-69
2023/11/22 05:43:42;;;;;;;6.97;5.70;;;4.30;99.90;;;;;;4923912;29;20462;-69
2023/11/22 05:46:08;;;;;;;6.03;5.27;;;4.30;99.90;;;;;;4932056;29;20441;-69
2023/11/22 05:48:34;;;;;;;6.53;5.23;;;4.20;99.90;;;;;;4927047;29;20991;-69
2023/11/22 05:50:59;;;;;;;6.63;5.67;;;4.20;99.90;;;;;;4925653;29;20716;-69
2023/11/22 05:53:25;;;;;;;6.50;5.80;;;4.30;99.90;;;;;;4926988;29;20193;-69
2023/11/22 05:55:51;;;;;;;6.30;5.70;;;4.30;99.90;;;;;;4929183;29;20963;-69
2023/11/22 05:58:17;;;;;;;6.50;5.90;;;4.30;99.90;;;;;;4926503;29;20228;-69
2023/11/22 06:00:46;;;;;;;7.60;5.40;;;4.20;99.90;;;;;;4927488;29;20189;-69
2023/11/22 06:03:12;;;;;;;6.63;5.60;;;4.30;99.90;;;;;;4932792;29;20528;-69
2023/11/22 06:05:39;;;;;;;6.77;6.07;;;4.30;99.90;;;;;;4929259;29;20536;-69
2023/11/22 06:08:04;;;;;;;8.73;5.67;;;4.30;99.90;;;;;;4930663;29;20456;-70
2023/11/22 06:10:30;;;;;;;6.23;5.63;;;4.30;99.90;;;;;;4932947;29;20512;-69
2023/11/22 06:12:56;;;;;;;5.77;5.17;;;4.30;99.90;;;;;;4931498;29;20188;-69
2023/11/22 06:15:22;;;;;;;8.20;6.00;;;4.30;99.90;;;;;;4930616;29;20190;-69
2023/11/22 06:17:51;;;;;;;7.87;6.03;;;4.30;99.90;;;;;;4928761;29;20229;-69
2023/11/22 06:20:17;;;;;;;6.20;5.40;;;4.20;99.90;;;;;;4925582;29;20455;-69
2023/11/22 06:22:42;;;;;;;7.13;5.47;;;4.20;99.90;;;;;;4927189;29;20444;-69
2023/11/22 06:25:11;;;;;;;5.23;4.60;;;4.20;99.90;;;;;;4927128;29;20677;-69
2023/11/22 06:27:37;;;;;;;5.60;4.70;;;4.20;99.90;;;;;;4922975;29;20860;-69
2023/11/22 06:30:04;;;;;;;5.67;4.93;;;4.20;99.90;;;;;;4925179;29;21054;-69
2023/11/22 06:32:29;;;;;;;7.80;5.47;;;4.10;99.90;;;;;;4933932;29;20436;-69
2023/11/22 06:34:55;;;;;;;6.20;5.43;;;4.20;99.90;;;;;;4927825;29;20445;-69
2023/11/22 06:37:20;;;;;;;6.70;6.00;;;4.10;99.90;;;;;;4931325;29;20317;-69
2023/11/22 06:39:46;;;;;;;6.37;5.30;;;4.10;99.90;;;;;;4934594;29;20212;-67
2023/11/22 06:42:13;;;;;;;5.90;5.30;;;4.00;99.90;;;;;;4930565;29;20191;-69
2023/11/22 06:44:39;;;;;;;8.20;7.00;;;4.00;99.90;;;;;;4931238;29;20292;-69
2023/11/22 06:47:06;;;;;;;6.10;4.90;;;4.10;99.90;;;;;;4923645;29;20458;-67
2023/11/22 06:49:31;;;;;;;7.77;5.30;;;4.10;99.90;;;;;;4925097;29;20442;-68
2023/11/22 06:51:57;;;;;;;5.20;4.67;;;4.10;99.90;;;;;;4931394;29;20782;-68
2023/11/22 06:54:23;;;;;;;4.93;4.43;;;4.10;99.90;;;;;;4929284;29;20248;-68
2023/11/22 06:56:50;;;;;;;5.50;5.00;;;4.10;99.90;;;;;;4926329;29;20519;-66
2023/11/22 06:59:15;;;;;;;4.93;4.43;;;4.20;99.90;;;;;;4926140;29;20194;-68
2023/11/22 07:01:41;;;;;;;6.67;5.90;;;4.20;99.90;;;;;;4928925;29;20434;-68
2023/11/22 07:04:06;;;;;;;5.73;4.73;;;4.10;99.90;;;;;;4926764;29;20206;-68
2023/11/22 07:06:32;;;;;;;5.80;4.90;;;4.20;99.90;;;;;;4934083;29;20573;-68
2023/11/22 07:08:59;;;;;;;6.20;5.00;;;4.10;99.90;;;;;;4937605;29;20533;-69
2023/11/22 07:11:25;;;;;;;6.03;5.40;;;4.10;99.90;;;;;;4938329;29;20177;-69
2023/11/22 07:13:51;;;;;;;5.20;4.37;;;4.00;99.90;;;;;;4938241;29;20425;-69
2023/11/22 07:16:18;;;;;;;5.80;5.10;;;4.00;99.90;;;;;;4937953;29;20472;-69
2023/11/22 07:18:45;;;;;;;4.77;4.37;;;3.90;99.90;;;;;;4936106;29;20885;-69
2023/11/22 07:21:11;;;;;;;5.40;4.23;;;3.90;99.90;;;;;;4937998;29;20425;-68
2023/11/22 07:23:37;;;;;;;8.53;5.03;;;3.80;99.90;;;;;;4936263;29;20476;-69
2023/11/22 07:26:03;;;;;;;4.10;3.70;;;3.80;99.90;;;;;;4937981;29;20504;-68
2023/11/22 07:28:30;;;;;;;5.33;4.43;;;3.80;99.90;;;;;;4936513;29;20491;-68
2023/11/22 07:30:56;;;;;;;3.93;3.53;;;3.80;99.90;;;;;;4936867;29;20193;-68
2023/11/22 07:33:22;;;;;;;4.87;4.43;;;3.80;99.90;;;;;;4936839;29;20813;-68
2023/11/22 07:35:48;;;;;;;4.23;3.80;;;3.70;99.90;;;;;;4937850;29;20917;-68
2023/11/22 07:38:14;;;;;;;4.07;3.53;;;3.70;99.90;;;;;;4936910;29;20224;-69
2023/11/22 07:40:39;;;;;;;4.23;3.80;;;3.60;99.90;;;;;;4934052;29;20440;-69
2023/11/22 07:43:05;;;;;;;4.37;3.90;;;3.60;99.90;;;;;;4935765;29;20442;-69
2023/11/22 07:45:34;;;;;;;3.80;3.50;;;3.60;99.90;;;;;;4936603;29;20676;-69
2023/11/22 07:47:59;;;;;;;5.43;4.80;;;3.70;99.90;;;;;;4935547;29;20223;-69
2023/11/22 07:50:26;;;;;;;4.00;3.60;;;3.60;99.90;;;;;;4935707;29;20441;-69
2023/11/22 07:52:51;;;;;;;4.23;3.83;;;3.60;99.90;;;;;;4937567;29;20429;-69
2023/11/22 07:55:18;;;;;;;6.30;4.17;;;3.70;99.90;;;;;;4937162;29;20440;-69
2023/11/22 07:57:44;;;;;;;4.00;3.57;;;3.70;99.90;;;;;;4927713;29;20257;-69
2023/11/22 08:00:11;;;;;;;5.00;4.10;;;3.70;99.90;;;;;;4935304;29;20441;-69
2023/11/22 08:02:40;;;;;;;5.13;4.63;;;3.70;99.90;;;;;;4928929;29;20496;-69
2023/11/22 08:05:08;;;;;;;4.70;3.93;;;3.80;99.90;;;;;;4935325;29;20460;-69
2023/11/22 08:07:40;;;;;;;5.80;3.80;;;3.80;99.90;;;;;;4936023;29;20481;-69
2023/11/22 08:10:18;;;;;;;3.53;3.23;;;3.90;99.90;;;;;;4936205;29;20429;-69
2023/11/22 08:12:44;;;;;;;3.40;3.10;;;3.90;99.90;;;;;;4932421;29;20831;-69
2023/11/22 08:15:12;;;;;;;4.63;3.67;;;3.90;99.90;;;;;;4936039;29;20445;-69
2023/11/22 08:17:38;;;;;;;4.67;4.27;;;3.90;99.90;;;;;;4934783;29;20465;-69
2023/11/22 08:20:05;;;;;;;5.03;4.53;;;3.70;99.90;;;;;;4936117;29;20480;-69
2023/11/22 08:22:35;;;;;;;6.27;4.33;;;3.70;99.90;;;;;;4936085;29;20445;-68
2023/11/22 08:25:04;;;;;;;5.93;3.80;;;3.70;99.90;;;;;;4935718;29;20457;-69
2023/11/22 08:27:29;;;;;;;4.10;3.80;;;3.70;99.90;;;;;;4935451;29;20945;-69
2023/11/22 08:29:55;;;;;;;4.67;4.20;;;3.70;99.90;;;;;;4935766;29;20441;-69
2023/11/22 08:32:23;;;;;;;4.53;4.00;;;3.70;99.90;;;;;;4935872;29;20656;-69
2023/11/22 08:34:49;;;;;;;6.80;4.80;;;3.70;99.90;;;;;;4930715;29;20178;-69
2023/11/22 08:37:15;;;;;;;5.60;3.70;;;3.80;99.90;;;;;;4934672;29;20845;-69
2023/11/22 08:39:41;;;;;;;7.63;4.60;;;3.80;99.90;;;;;;4934953;29;20444;-69
2023/11/22 08:42:09;;;;;;;6.10;3.87;;;3.80;99.90;;;;;;4935562;29;20190;-69
2023/11/22 08:44:36;;;;;;;4.63;3.80;;;3.80;99.90;;;;;;4934548;29;20300;-69
2023/11/22 08:47:03;;;;;;;4.60;3.80;;;3.90;99.90;;;;;;4935215;29;20973;-69
2023/11/22 08:49:28;;;;;;;6.77;5.07;;;3.90;99.90;;;;;;4935574;29;20444;-69
2023/11/22 08:51:54;;;;;;;6.30;4.53;;;3.90;99.90;;;;;;4934467;29;20441;-69
2023/11/22 08:54:19;;;;;;;4.27;3.87;;;4.00;99.90;;;;;;4935731;29;20272;-69
2023/11/22 08:56:46;;;;;;;4.83;3.97;;;4.00;99.90;;;;;;4936143;29;20198;-69
2023/11/22 08:59:12;;;;;;;4.70;3.83;;;3.90;99.90;;;;;;4935784;29;20697;-69
2023/11/22 09:01:38;;;;;;;6.63;3.83;;;4.00;99.90;;;;;;4935333;29;20529;-69
2023/11/22 09:04:04;;;;;;;6.23;4.87;;;4.00;99.90;;;;;;4935104;29;20524;-69
2023/11/22 09:06:30;;;;;;;5.60;4.60;;;4.00;99.90;;;;;;4935303;29;20276;-69
2023/11/22 09:08:56;;;;;;;5.00;4.17;;;4.00;99.90;;;;;;4933220;29;20193;-69
2023/11/22 09:11:22;;;;;;;4.93;4.20;;;3.90;99.90;;;;;;4936075;29;20426;-69
2023/11/22 09:13:49;;;;;;;7.17;5.17;;;3.90;99.90;;;;;;4935181;29;20572;-69
2023/11/22 09:16:16;;;;;;;4.90;4.47;;;3.90;99.90;;;;;;4933975;29;20500;-69
2023/11/22 09:18:42;;;;;;;5.33;4.53;;;4.00;99.90;;;;;;4935120;29;20970;-69
2023/11/22 09:21:09;;;;;;;4.30;3.83;;;4.00;99.90;;;;;;4934629;29;20465;-69
2023/11/22 09:23:36;;;;;;;5.93;4.53;;;4.10;99.90;;;;;;4932698;29;20509;-69
2023/11/22 09:26:02;;;;;;;5.13;4.10;;;4.10;99.90;;;;;;4934075;29;20456;-69
2023/11/22 09:28:28;;;;;;;5.43;4.40;;;4.10;99.90;;;;;;4935462;29;20452;-69
2023/11/22 09:31:01;;;;;;;7.20;4.30;;;4.20;99.90;;;;;;4934841;29;20437;-69
2023/11/22 09:33:26;;;;;;;5.17;4.67;;;4.20;99.90;;;;;;4928598;29;20731;-69
2023/11/22 09:35:52;;;;;;;5.60;4.70;;;4.20;99.90;;;;;;4935615;29;20429;-69
2023/11/22 09:38:18;;;;;;;6.33;5.13;;;4.30;99.90;;;;;;4934203;29;20220;-69
2023/11/22 09:40:45;;;;;;;5.87;4.10;;;4.20;99.90;;;;;;4935577;29;20182;-69
2023/11/22 09:43:11;;;;;;;7.20;6.17;;;4.30;99.90;;;;;;4933607;29;20268;-69
2023/11/22 09:45:38;;;;;;;7.10;5.60;;;4.40;99.90;;;;;;4931465;29;20471;-69
2023/11/22 09:48:14;;;;;;;7.70;6.50;;;4.30;99.90;;;;;;4932099;29;20980;-69
2023/11/22 09:50:59;;;;;;;7.63;4.27;;;4.30;99.90;;;;;;4934428;29;20436;-69
2023/11/22 09:53:47;;;;;;;8.50;5.30;;;4.40;99.90;;;;;;4927187;29;20444;-69
2023/11/22 09:56:15;;;;;;;6.30;5.10;;;4.30;99.90;;;;;;4934290;29;20433;-69
2023/11/22 09:58:44;;;;;;;6.10;4.97;;;4.30;99.90;;;;;;4933600;29;20441;-69
2023/11/22 10:01:13;;;;;;;10.00;5.53;;;4.30;99.90;;;;;;4930560;29;20806;-69
2023/11/22 10:03:40;;;;;;;5.50;4.97;;;4.10;99.90;;;;;;4932507;29;20543;-69
2023/11/22 10:06:06;;;;;;;5.47;4.97;;;4.10;99.90;;;;;;4935045;29;20440;-69
2023/11/22 10:08:32;;;;;;;7.83;5.33;;;4.20;99.90;;;;;;4934735;29;20442;-69
2023/11/22 10:10:59;;;;;;;12.77;5.47;;;4.30;99.90;;;;;;4932931;29;20441;-69
2023/11/22 10:13:25;;;;;;;7.80;5.07;;;4.30;99.90;;;;;;4934007;29;21131;-69
2023/11/22 10:15:52;;;;;;;6.27;4.90;;;4.40;99.90;;;;;;4934140;29;20504;-69
2023/11/22 10:18:19;;;;;;;9.13;4.80;;;4.40;99.90;;;;;;4932695;29;20469;-69
2023/11/22 10:20:47;;;;;;;6.97;4.80;;;4.40;99.90;;;;;;4934009;29;20440;-70
2023/11/22 10:23:14;;;;;;;6.00;5.50;;;4.40;99.90;;;;;;4934748;29;20422;-70
2023/11/22 10:25:52;;;;;;;6.47;5.53;;;4.40;99.90;;;;;;4935367;29;20923;-70
2023/11/22 10:28:23;;;;;;;6.03;5.17;;;4.30;99.90;;;;;;4933350;29;20445;-70
2023/11/22 10:30:51;;;;;;;8.63;4.87;;;4.30;99.90;;;;;;4935067;29;20417;-70
2023/11/22 10:33:17;;;;;;;6.20;5.60;;;4.20;99.90;;;;;;4935050;29;20928;-70
2023/11/22 10:35:53;;;;;;;9.80;6.00;;;4.30;99.90;;;;;;4934077;29;20496;-70
2023/11/22 10:38:20;;;;;;;6.80;5.07;;;4.20;99.90;;;;;;4934402;29;20493;-70
2023/11/22 10:40:47;;;;;;;8.63;6.63;;;4.30;99.90;;;;;;4934654;29;20429;-68
2023/11/22 10:43:14;;;;;;;9.83;7.57;;;4.40;99.90;;;;;;4934717;29;20429;-68
2023/11/22 10:45:44;;;;;;;10.00;6.53;;;4.40;99.90;;;;;;4934696;29;20469;-68
2023/11/22 10:48:11;;;;;;;5.40;4.90;;;4.40;99.90;;;;;;4934442;29;20798;-69
2023/11/22 10:50:37;;;;;;;8.10;6.50;;;4.40;99.90;;;;;;4934499;29;20797;-69
2023/11/22 10:53:06;;;;;;;6.80;6.13;;;4.40;99.90;;;;;;4934642;29;20500;-69
2023/11/22 10:55:32;;;;;;;7.37;6.67;;;4.50;99.90;;;;;;4934684;29;20538;-69
2023/11/22 10:58:06;;;;;;;7.17;6.17;;;4.50;99.90;;;;;;4934259;29;20445;-69
2023/11/22 11:00:32;;;;;;;7.07;6.37;;;4.60;99.90;;;;;;4934625;29;20441;-69
2023/11/22 11:03:11;;;;;;;8.00;6.30;;;4.60;99.90;;;;;;4934587;29;20421;-69
2023/11/22 11:05:41;;;;;;;7.23;6.23;;;4.80;99.90;;;;;;4934496;29;20496;-69
2023/11/22 11:08:12;;;;;;;7.53;6.10;;;4.80;99.90;;;;;;4934129;29;20449;-69
2023/11/22 11:10:43;;;;;;;9.93;6.07;;;4.80;99.90;;;;;;4934568;29;20448;-69
2023/11/22 11:13:10;;;;;;;8.97;6.30;;;4.80;99.90;;;;;;4934459;29;20429;-69
2023/11/22 11:15:37;;;;;;;8.10;6.37;;;4.90;99.90;;;;;;4934400;29;20452;-69
2023/11/22 11:18:05;;;;;;;7.97;6.97;;;5.00;99.90;;;;;;4933865;29;20449;-69
2023/11/22 11:20:49;;;;;;;9.20;5.93;;;4.90;99.90;;;;;;4934560;29;20464;-68
2023/11/22 11:23:19;;;;;;;8.97;7.13;;;4.80;99.90;;;;;;4934751;29;20929;-70
2023/11/22 11:25:48;;;;;;;7.00;5.53;;;4.60;99.90;;;;;;4934511;29;20453;-70
2023/11/22 11:28:14;;;;;;;7.67;6.87;;;4.60;99.90;;;;;;4933894;29;20460;-70
2023/11/22 11:30:50;;;;;;;7.57;5.90;;;4.50;99.90;;;;;;4934279;29;20420;-70
2023/11/22 11:33:27;;;;;;;9.33;6.40;;;4.50;99.90;;;;;;4934385;29;20977;-70
2023/11/22 11:35:56;;;;;;;8.17;6.40;;;4.50;99.90;;;;;;4934455;29;20491;-70
2023/11/22 11:38:26;;;;;;;11.70;6.23;;;4.50;99.90;;;;;;4933840;29;20457;-70
2023/11/22 11:40:54;;;;;;;7.60;6.40;;;4.50;99.90;;;;;;4934095;29;20445;-70
2023/11/22 11:43:49;;;;;;;7.53;6.03;;;4.70;99.90;;;;;;4934121;29;20425;-70
2023/11/22 11:46:16;;;;;;;8.83;6.00;;;4.60;99.90;;;;;;4935543;29;20413;-70
2023/11/22 11:48:44;;;;;;;8.80;6.30;;;4.70;99.90;;;;;;4937624;29;20425;-70
2023/11/22 11:51:12;;;;;;;8.10;6.80;;;4.70;99.90;;;;;;4937672;29;20432;-70
2023/11/22 11:53:39;;;;;;;8.90;6.17;;;4.50;99.90;;;;;;4937553;29;20458;-70
2023/11/22 11:56:05;;;;;;;7.97;6.37;;;4.50;99.90;;;;;;4937553;29;20465;-70
2023/11/22 11:58:31;;;;;;;9.53;6.10;;;4.50;99.90;;;;;;4936954;29;20549;-70
2023/11/22 12:00:57;;;;;;;8.73;6.10;;;4.60;99.90;;;;;;4937531;29;20891;-70
2023/11/22 12:03:23;;;;;;;9.63;6.80;;;4.60;99.90;;;;;;4937313;29;20435;-70
2023/11/22 12:05:49;;;;;;;7.90;6.73;;;4.50;99.90;;;;;;4937384;29;20178;-70
2023/11/22 12:08:18;;;;;;;8.50;6.50;;;4.40;99.90;;;;;;4936998;29;20188;-70
2023/11/22 12:10:48;;;;;;;7.37;6.53;;;4.30;99.90;;;;;;4937277;29;20422;-70
2023/11/22 12:13:17;;;;;;;8.57;7.70;;;4.30;99.90;;;;;;4937469;29;20414;-70
2023/11/22 12:15:42;;;;;;;7.77;6.20;;;4.30;99.90;;;;;;4932426;29;20433;-71
2023/11/22 12:18:08;;;;;;;13.27;7.03;;;4.30;99.90;;;;;;4932475;29;20454;-71
2023/11/22 12:20:35;;;;;;;8.10;6.50;;;4.30;99.90;;;;;;4918027;29;20226;-70
2023/11/22 12:23:01;;;;;;;8.00;7.13;;;4.30;99.90;;;;;;4934060;28;20182;-70
2023/11/22 12:25:27;;;;;;;9.40;7.57;;;4.40;99.90;;;;;;4935019;29;20483;-68
2023/11/22 12:27:55;;;;;;;9.30;6.43;;;4.40;99.90;;;;;;4935687;29;20284;-68
2023/11/22 12:30:31;;;;;;;10.10;8.20;;;4.30;99.90;;;;;;4934947;29;20437;-68
2023/11/22 12:32:57;;;;;;;11.03;6.90;;;4.30;99.90;;;;;;4934858;29;20952;-68
2023/11/22 12:35:23;;;;;;;7.87;6.30;;;4.20;99.90;;;;;;4937016;29;20428;-68
2023/11/22 12:37:49;;;;;;;10.30;5.77;;;4.10;99.90;;;;;;4934229;29;20472;-68
2023/11/22 12:40:17;;;;;;;9.23;6.53;;;4.00;99.90;;;;;;4935881;29;20492;-68
2023/11/22 12:42:50;;;;;;;8.13;6.07;;;4.00;99.90;;;;;;4935707;29;20185;-68
2023/11/22 12:45:24;;;;;;;7.50;6.70;;;4.10;99.90;;;;;;4935643;29;20480;-68
2023/11/22 12:47:54;;;;;;;8.10;7.17;;;4.10;99.90;;;;;;4934679;29;20453;-68
2023/11/22 12:50:30;;;;;;;9.73;7.70;;;4.10;99.90;;;;;;4936554;29;20422;-68
2023/11/22 12:52:55;;;;;;;8.30;7.03;;;4.10;99.90;;;;;;4935431;29;20447;-68